Time;durP1;ratioP1;P1;durP2;ratioP2;P2;SDS_P1;SDS_P2;PMS_P1;PMS_P2;Temp;Humidity;BMP_temperature;BMP_pressure;BME280_temperature;BME280_humidity;BME280_pressure;Samples;Min_cycle;Max_cycle;Signal;HPM_P1;HPM_P2
2021/09/14 00:00:53;;;;;;;11.43;7.80;;;;;;;16.40;78.30;99523.26;1733891;82;20935;-56
2021/09/14 00:03:20;;;;;;;8.63;7.83;;;;;;;16.42;78.15;99526.66;1728835;82;21010;-57
2021/09/14 00:05:47;;;;;;;8.98;7.90;;;;;;;16.38;78.00;99522.52;1713704;81;21435;-56
2021/09/14 00:08:13;;;;;;;9.40;8.35;;;;;;;16.31;78.13;99522.95;1721831;82;21526;-56
2021/09/14 00:10:41;;;;;;;8.28;7.47;;;;;;;16.25;78.18;99520.69;1708034;82;21188;-56
2021/09/14 00:13:09;;;;;;;11.65;7.65;;;;;;;16.25;78.24;99518.52;1705000;82;21459;-57
2021/09/14 00:15:36;;;;;;;8.30;7.50;;;;;;;16.28;78.20;99517.00;1704144;83;21518;-57
2021/09/14 00:18:04;;;;;;;8.83;8.13;;;;;;;16.24;78.11;99520.82;1705063;82;21431;-57
2021/09/14 00:20:30;;;;;;;9.30;8.37;;;;;;;16.15;78.08;99522.28;1703507;82;21761;-57
2021/09/14 00:22:57;;;;;;;8.40;7.60;;;;;;;16.04;78.08;99523.00;1729823;82;22197;-56
2021/09/14 00:25:24;;;;;;;10.88;7.65;;;;;;;16.03;78.56;99527.08;1719459;82;21472;-57
2021/09/14 00:27:50;;;;;;;9.30;8.33;;;;;;;16.03;78.54;99529.27;1704472;82;20986;-56
2021/09/14 00:30:18;;;;;;;8.73;7.72;;;;;;;15.96;78.54;99524.00;1706591;82;21455;-56
2021/09/14 00:32:45;;;;;;;14.25;8.43;;;;;;;15.88;78.87;99523.20;1724416;82;21812;-56
2021/09/14 00:35:11;;;;;;;8.90;8.00;;;;;;;15.84;78.76;99527.00;1733602;81;21436;-56
2021/09/14 00:37:39;;;;;;;9.45;8.53;;;;;;;15.84;78.90;99527.00;1715527;82;21488;-56
2021/09/14 00:40:07;;;;;;;9.73;8.70;;;;;;;15.88;78.72;99523.20;1704153;83;21538;-56
2021/09/14 00:42:35;;;;;;;9.53;8.68;;;;;;;15.84;78.69;99523.48;1711856;81;21409;-56
2021/09/14 00:45:04;;;;;;;10.28;7.35;;;;;;;15.80;78.52;99527.30;1703008;82;22069;-58
2021/09/14 00:47:32;;;;;;;10.80;8.43;;;;;;;15.74;78.77;99520.59;1715662;82;21433;-57
2021/09/14 00:50:00;;;;;;;12.85;8.80;;;;;;;15.81;78.95;99522.38;1725779;82;20998;-58
2021/09/14 00:52:28;;;;;;;10.53;8.48;;;;;;;15.81;79.00;99519.24;1722342;82;21503;-58
2021/09/14 00:54:55;;;;;;;14.80;8.98;;;;;;;15.73;79.03;99522.86;1725760;82;20919;-56
2021/09/14 00:57:23;;;;;;;10.95;8.43;;;;;;;15.66;79.06;99517.58;1717605;82;21732;-57
2021/09/14 00:59:49;;;;;;;11.38;7.90;;;;;;;15.69;79.62;99522.66;1696380;84;21554;-56
2021/09/14 01:02:16;;;;;;;9.28;8.38;;;;;;;15.78;79.64;99526.55;1696401;84;21035;-58
2021/09/14 01:04:43;;;;;;;9.03;8.13;;;;;;;15.80;79.47;99524.16;1720977;81;21404;-57
2021/09/14 01:07:10;;;;;;;11.25;8.78;;;;;;;15.77;79.43;99532.34;1725870;82;20955;-57
2021/09/14 01:09:38;;;;;;;11.03;8.25;;;;;;;15.75;79.44;99536.41;1725623;82;21488;-56
2021/09/14 01:12:06;;;;;;;11.53;8.70;;;;;;;15.80;79.62;99539.22;1722069;82;21661;-57
2021/09/14 01:14:32;;;;;;;9.55;8.60;;;;;;;15.88;79.59;99533.80;1707202;81;21414;-57
2021/09/14 01:17:00;;;;;;;9.38;7.78;;;;;;;15.89;79.33;99538.62;1696306;84;21539;-57
2021/09/14 01:19:28;;;;;;;9.98;8.65;;;;;;;15.87;79.20;99540.52;1695660;83;21542;-57
2021/09/14 01:21:55;;;;;;;10.73;7.93;;;;;;;15.81;79.18;99540.94;1696216;82;21875;-56
2021/09/14 01:24:22;;;;;;;8.83;7.92;;;;;;;15.83;79.32;99540.36;1677786;83;21436;-57
2021/09/14 01:26:53;;;;;;;10.82;9.13;;;;;;;15.87;79.12;99540.04;1696116;82;21550;-56
2021/09/14 01:32:07;;;;;;;10.93;8.45;;;;;;;15.81;78.84;99539.13;1696125;83;21514;-57
2021/09/14 01:34:34;;;;;;;10.15;8.20;;;;;;;15.73;78.78;99538.31;1699919;82;21766;-57
2021/09/14 01:37:02;;;;;;;9.40;8.50;;;;;;;15.76;78.84;99543.42;1725583;81;21397;-57
2021/09/14 01:39:31;;;;;;;8.73;7.80;;;;;;;15.76;78.76;99538.57;1704561;82;21435;-57
2021/09/14 01:41:58;;;;;;;;;;;;;;;15.69;78.68;99539.44;1729174;81;21513;-56
2021/09/14 01:44:24;;;;;;;10.70;8.40;;;;;;;15.63;78.70;99536.32;1724917;82;20141;-57
2021/09/14 01:46:53;;;;;;;8.53;7.70;;;;;;;15.54;78.90;99543.94;1733127;82;21558;-57
2021/09/14 01:49:22;;;;;;;9.18;8.08;;;;;;;15.56;79.06;99535.41;1739523;82;21541;-58
2021/09/14 01:51:48;;;;;;;10.85;8.35;;;;;;;15.61;78.99;99536.42;1738340;82;21499;-58
2021/09/14 01:54:16;;;;;;;11.30;7.50;;;;;;;15.60;78.81;99541.84;1739708;82;21514;-57
2021/09/14 01:56:42;;;;;;;8.83;7.58;;;;;;;15.53;78.74;99533.43;1737494;82;21447;-57
2021/09/14 01:59:11;;;;;;;9.77;8.10;;;;;;;15.48;78.75;99538.17;1739956;82;21999;-57
2021/09/14 02:01:44;;;;;;;8.05;7.25;;;;;;;15.49;78.84;99539.88;1739958;82;21844;-57
2021/09/14 02:04:19;;;;;;;8.48;7.65;;;;;;;15.51;78.73;99542.80;1739579;82;21411;-56
2021/09/14 02:07:09;;;;;;;8.78;7.87;;;;;;;15.49;78.55;99539.88;1737331;80;21493;-56
2021/09/14 02:34:09;;;;;;;8.73;7.85;;;;;;;14.89;78.77;99559.56;1709923;83;21770;-57
2021/09/14 02:41:57;;;;;;;9.70;8.80;;;;;;;14.85;79.32;99562.02;1739472;82;21448;-57
2021/09/14 03:00:39;;;;;;;8.98;8.15;;;;;;;14.67;80.03;99579.86;1723529;82;21437;-57
2021/09/14 03:03:07;;;;;;;9.43;8.53;;;;;;;14.72;79.91;99581.77;1705789;82;21435;-57
2021/09/14 03:05:34;;;;;;;10.28;8.25;;;;;;;14.68;79.79;99586.88;1696601;84;21420;-56
2021/09/14 03:08:03;;;;;;;9.28;8.48;;;;;;;14.61;79.75;99585.05;1721409;82;21488;-57
2021/09/14 03:10:31;;;;;;;9.15;8.25;;;;;;;14.60;80.07;99588.66;1710718;82;21079;-57
2021/09/14 03:13:00;;;;;;;10.13;8.15;;;;;;;14.64;80.17;99590.17;1695510;82;21152;-58
2021/09/14 03:15:27;;;;;;;9.80;8.40;;;;;;;14.62;80.06;99596.03;1696529;82;21487;-56
2021/09/14 03:17:53;;;;;;;9.78;8.78;;;;;;;14.56;79.94;99588.41;1696707;82;21791;-56
2021/09/14 03:20:22;;;;;;;10.78;9.05;;;;;;;14.49;79.88;99589.27;1698341;82;21486;-56
2021/09/14 03:22:49;;;;;;;9.23;8.28;;;;;;;14.50;80.13;99592.27;1696407;84;21506;-56
2021/09/14 03:25:17;;;;;;;8.85;7.78;;;;;;;14.54;79.94;99601.76;1696301;84;21535;-56
2021/09/14 03:27:44;;;;;;;10.83;9.07;;;;;;;14.43;79.80;99604.64;1707688;82;21432;-56
2021/09/14 03:30:12;;;;;;;10.23;8.90;;;;;;;14.43;79.80;99604.64;1696510;84;22126;-56
2021/09/14 03:32:39;;;;;;;9.43;8.40;;;;;;;14.34;80.18;99601.61;1715499;82;21412;-57
2021/09/14 03:35:08;;;;;;;12.98;9.18;;;;;;;14.34;80.30;99600.28;1705771;82;27220;-57
2021/09/14 03:37:34;;;;;;;;;;;;;;;14.40;80.37;99599.91;1725900;82;21543;-57
2021/09/14 03:40:05;;;;;;;10.30;9.28;;;;;;;14.36;80.43;99601.04;1725632;81;20453;-58
2021/09/14 03:42:32;;;;;;;11.75;9.55;;;;;;;14.30;80.15;99600.09;1704821;82;21625;-57
2021/09/14 03:44:59;;;;;;;12.90;8.43;;;;;;;14.25;80.40;99607.44;1722664;80;21566;-57
2021/09/14 03:47:27;;;;;;;11.78;9.33;;;;;;;14.29;80.45;99605.46;1707478;82;21543;-58
2021/09/14 03:49:54;;;;;;;9.80;8.90;;;;;;;14.32;80.27;99607.45;1733982;82;21451;-58
2021/09/14 03:52:20;;;;;;;9.75;8.80;;;;;;;14.28;80.27;99608.59;1733815;82;21773;-58
2021/09/14 03:54:47;;;;;;;11.70;8.83;;;;;;;14.27;80.11;99611.31;1733991;81;21541;-58
2021/09/14 03:57:14;;;;;;;15.08;9.03;;;;;;;14.21;80.45;99620.46;1710789;82;21431;-58
2021/09/14 03:59:41;;;;;;;11.78;7.75;;;;;;;14.27;80.82;99616.12;1728524;82;21424;-58
2021/09/14 04:09:52;;;;;;;9.80;8.63;;;;;;;14.37;80.79;99626.56;1706821;81;21505;-58
2021/09/14 04:12:19;;;;;;;13.38;8.40;;;;;;;14.40;80.72;99626.84;1724148;82;20999;-58
2021/09/14 04:14:46;;;;;;;10.05;8.28;;;;;;;14.44;80.63;99629.68;1733845;81;21514;-58
2021/09/14 04:17:13;;;;;;;14.65;8.90;;;;;;;14.44;80.67;99628.84;1733994;81;20998;-58
2021/09/14 04:19:41;;;;;;;10.60;8.40;;;;;;;14.43;80.78;99637.25;1706299;82;21773;-58
2021/09/14 04:22:07;;;;;;;10.68;8.08;;;;;;;14.53;80.69;99639.72;1709866;82;21590;-58
2021/09/14 04:24:36;;;;;;;10.95;8.45;;;;;;;14.61;80.55;99645.91;1733542;82;21019;-58
2021/09/14 04:27:05;;;;;;;9.85;8.78;;;;;;;14.60;80.40;99646.39;1706754;82;20967;-58
2021/09/14 04:29:33;;;;;;;9.50;8.60;;;;;;;14.59;80.34;99645.16;1675893;83;20951;-58
2021/09/14 04:32:00;;;;;;;9.03;8.18;;;;;;;14.66;80.49;99643.85;1704532;82;22193;-59
2021/09/14 04:34:28;;;;;;;9.50;8.60;;;;;;;14.78;80.40;99643.58;1720818;82;21499;-57
2021/09/14 04:36:54;;;;;;;9.65;8.75;;;;;;;14.87;80.23;99643.51;1705056;82;20986;-56
2021/09/14 04:39:22;;;;;;;9.28;8.38;;;;;;;14.87;80.01;99646.16;1707455;82;21423;-56
2021/09/14 04:41:49;;;;;;;11.30;7.75;;;;;;;14.86;79.85;99658.55;1704190;83;21476;-58
2021/09/14 04:44:18;;;;;;;8.55;7.37;;;;;;;14.92;80.02;99655.52;1704353;83;22087;-58
2021/09/14 04:46:46;;;;;;;9.48;8.23;;;;;;;15.02;79.75;99650.52;1717355;80;21432;-57
2021/09/14 04:49:13;;;;;;;10.60;8.85;;;;;;;15.05;79.46;99656.08;1709446;82;20946;-56
2021/09/14 04:51:41;;;;;;;9.95;8.38;;;;;;;15.02;79.49;99657.13;1704451;82;21582;-57
2021/09/14 04:54:09;;;;;;;14.68;9.43;;;;;;;15.03;79.41;99661.50;1704270;83;21584;-58
2021/09/14 04:57:30;;;;;;;9.43;8.50;;;;;;;15.20;79.20;99659.14;1787693;79;23200;-55
2021/09/14 04:59:58;;;;;;;12.47;8.53;;;;;;;15.17;78.84;99668.11;1747603;81;21479;-55
2021/09/14 05:02:25;;;;;;;11.85;8.40;;;;;;;15.15;78.71;99667.34;1740711;81;21840;-56
2021/09/14 05:04:52;;;;;;;10.03;9.03;;;;;;;15.09;78.85;99673.03;1749080;81;21592;-56
2021/09/14 05:07:19;;;;;;;10.58;8.23;;;;;;;15.13;78.81;99678.52;1749192;80;21447;-57
2021/09/14 05:09:46;;;;;;;12.23;9.23;;;;;;;15.21;78.79;99673.23;1748954;80;21449;-55
2021/09/14 05:12:15;;;;;;;13.22;9.13;;;;;;;15.21;78.51;99682.02;1747432;81;20970;-57
2021/09/14 05:14:43;;;;;;;9.98;8.68;;;;;;;15.14;78.46;99673.61;1747434;81;22816;-56
2021/09/14 05:17:16;;;;;;;11.50;8.73;;;;;;;15.14;78.49;99678.91;1714163;81;21427;-56
2021/09/14 05:19:48;;;;;;;9.63;8.73;;;;;;;15.22;78.70;99681.53;1710223;83;21415;-57
2021/09/14 05:22:19;;;;;;;10.03;8.95;;;;;;;15.29;78.36;99682.86;1722054;81;21427;-57
2021/09/14 05:24:45;;;;;;;13.28;9.40;;;;;;;15.31;78.18;99683.61;1744125;80;20922;-57
2021/09/14 05:27:12;;;;;;;10.13;9.13;;;;;;;15.30;77.86;99680.61;1678900;81;21706;-58
2021/09/14 05:29:39;;;;;;;12.23;9.45;;;;;;;15.29;78.16;99677.08;1685472;84;21467;-58
2021/09/14 05:32:06;;;;;;;12.25;8.80;;;;;;;15.40;78.21;99673.78;1685508;81;21552;-59
2021/09/14 05:34:34;;;;;;;11.43;8.80;;;;;;;15.49;77.85;99679.83;1743957;81;21474;-58
2021/09/14 05:37:01;;;;;;;10.30;9.07;;;;;;;15.51;77.54;99678.41;1744444;81;21416;-57
2021/09/14 05:39:30;;;;;;;11.85;8.80;;;;;;;15.54;77.22;99675.58;1733487;81;21741;-56
2021/09/14 05:41:57;;;;;;;13.30;8.10;;;;;;;15.60;77.46;99689.77;1714613;81;21403;-56
2021/09/14 05:44:24;;;;;;;13.85;8.80;;;;;;;15.75;77.33;99686.17;1714612;81;21493;-56
2021/09/14 05:46:52;;;;;;;13.30;8.05;;;;;;;15.84;76.28;99689.17;1714516;83;21495;-57
2021/09/14 05:49:19;;;;;;;11.33;8.30;;;;;;;15.81;75.79;99688.06;1716902;81;20930;-55
2021/09/14 05:51:46;;;;;;;12.20;8.37;;;;;;;15.79;75.83;99694.78;1711113;81;21720;-56
2021/09/14 05:54:13;;;;;;;10.10;8.47;;;;;;;15.84;76.12;99693.15;1695788;83;21578;-55
2021/09/14 05:56:40;;;;;;;9.65;8.35;;;;;;;16.03;75.66;99694.14;1675065;83;21487;-56
2021/09/14 05:59:08;;;;;;;10.75;8.40;;;;;;;16.04;75.30;99696.70;1703474;82;21570;-56
2021/09/14 06:01:35;;;;;;;9.23;8.18;;;;;;;16.08;75.01;99705.31;1669535;84;21526;-55
2021/09/14 06:04:03;;;;;;;14.13;8.05;;;;;;;16.09;74.82;99697.75;1705102;83;21734;-55
2021/09/14 06:06:30;;;;;;;11.55;7.80;;;;;;;16.21;74.97;99696.93;1705205;83;21459;-56
2021/09/14 06:08:58;;;;;;;10.48;8.10;;;;;;;16.45;74.25;99693.63;1687750;84;25839;-56
2021/09/14 06:11:26;;;;;;;16.48;8.88;;;;;;;16.46;73.79;99688.23;1679487;82;21475;-56
2021/09/14 06:13:56;;;;;;;9.35;8.30;;;;;;;16.48;73.42;99688.09;1726188;80;21544;-56
2021/09/14 06:16:22;;;;;;;10.60;8.65;;;;;;;16.50;73.26;99690.17;1764637;80;21414;-57
2021/09/14 06:18:50;;;;;;;9.03;7.80;;;;;;;16.55;73.00;99684.93;1764578;80;21429;-56
2021/09/14 06:21:19;;;;;;;7.47;6.60;;;;;;;16.70;73.08;99679.55;1731191;80;21436;-56
2021/09/14 06:23:46;;;;;;;10.32;7.00;;;;;;;16.88;72.29;99680.16;1729644;81;22220;-56
2021/09/14 06:26:13;;;;;;;12.63;7.92;;;;;;;16.95;71.38;99681.41;1728220;82;21641;-55
2021/09/14 06:28:40;;;;;;;16.77;7.27;;;;;;;17.02;70.96;99678.70;1728781;81;21580;-56
2021/09/14 06:31:08;;;;;;;9.35;7.58;;;;;;;17.06;70.71;99681.52;1734307;80;21569;-56
2021/09/14 06:33:35;;;;;;;16.43;6.33;;;;;;;17.16;70.28;99676.90;1729726;81;21562;-58
2021/09/14 06:36:04;;;;;;;10.43;5.80;;;;;;;17.29;69.46;99680.40;1721152;80;21559;-55
2021/09/14 06:38:32;;;;;;;7.28;5.85;;;;;;;17.40;69.93;99681.82;1737015;80;21523;-55
2021/09/14 06:40:59;;;;;;;11.10;6.10;;;;;;;17.54;69.85;99684.84;1759979;81;21731;-54
2021/09/14 06:43:34;;;;;;;11.50;5.92;;;;;;;17.63;69.38;99689.97;1745315;80;21518;-56
2021/09/14 06:46:02;;;;;;;8.38;6.25;;;;;;;17.64;68.39;99688.53;1720346;82;21534;-55
2021/09/14 06:48:31;;;;;;;8.58;6.70;;;;;;;17.66;67.88;99687.95;1733894;81;21437;-55
2021/09/14 06:50:59;;;;;;;9.88;6.45;;;;;;;17.71;67.58;99696.94;1707954;82;21479;-55
2021/09/14 06:53:31;;;;;;;7.80;5.70;;;;;;;17.78;67.67;99698.20;1694277;82;22138;-56
2021/09/14 06:55:56;;;;;;;10.10;5.85;;;;;;;17.87;68.39;99702.02;1730923;81;21586;-56
2021/09/14 06:58:25;;;;;;;7.65;5.47;;;;;;;18.07;67.79;99697.92;1738954;82;20998;-55
2021/09/14 07:00:51;;;;;;;8.93;5.00;;;;;;;18.13;67.10;99697.47;1739507;82;21446;-56
2021/09/14 07:03:18;;;;;;;7.92;4.85;;;;;;;18.25;66.63;99697.91;1739111;80;21557;-56
2021/09/14 07:05:44;;;;;;;5.47;4.90;;;;;;;18.27;66.38;99699.10;1739379;82;21482;-56
2021/09/14 07:08:13;;;;;;;8.73;5.03;;;;;;;18.32;65.98;99704.10;1739352;80;20974;-56
2021/09/14 07:10:41;;;;;;;6.80;5.40;;;;;;;18.38;65.67;99704.48;1700998;82;21400;-57
2021/09/14 07:13:09;;;;;;;7.58;5.28;;;;;;;18.45;65.71;99695.56;1738918;81;21028;-57
2021/09/14 07:15:37;;;;;;;6.90;5.00;;;;;;;18.56;65.41;99705.42;1739569;80;21416;-57
2021/09/14 07:18:04;;;;;;;7.28;4.87;;;;;;;18.67;65.38;99703.64;1739714;82;21704;-57
2021/09/14 07:20:31;;;;;;;10.75;5.60;;;;;;;18.86;64.58;99700.95;1735521;82;20983;-57
2021/09/14 07:22:58;;;;;;;11.20;4.95;;;;;;;18.88;63.20;99708.34;1731081;81;20951;-57
2021/09/14 07:25:26;;;;;;;12.03;4.80;;;;;;;18.91;63.71;99709.91;1733098;81;21459;-56
2021/09/14 07:27:53;;;;;;;6.08;4.80;;;;;;;18.95;63.32;99708.23;1735681;82;21412;-57
2021/09/14 07:30:19;;;;;;;9.83;5.17;;;;;;;19.04;63.42;99707.54;1735626;80;22151;-57
2021/09/14 07:32:51;;;;;;;8.33;5.10;;;;;;;19.09;63.13;99707.66;1732470;81;21097;-57
2021/09/14 07:35:15;;;;;;;7.62;4.80;;;;;;;19.10;61.31;99710.21;1734618;82;21089;-56
2021/09/14 07:37:42;;;;;;;8.53;5.40;;;;;;;19.10;61.81;99704.02;1730040;80;21582;-56
2021/09/14 07:40:12;;;;;;;6.22;5.60;;;;;;;19.15;61.65;99708.02;1731151;80;21444;-56
2021/09/14 07:42:40;;;;;;;6.80;5.65;;;;;;;19.20;61.37;99703.19;1732505;80;21613;-57
2021/09/14 07:45:08;;;;;;;6.30;5.70;;;;;;;19.26;61.23;99703.19;1730307;82;21510;-56
2021/09/14 07:47:35;;;;;;;11.85;5.53;;;;;;;19.35;60.72;99701.14;1730845;82;21602;-56
2021/09/14 07:50:02;;;;;;;13.05;8.00;;;;;;;19.42;61.11;99700.16;1734715;81;21507;-57
2021/09/14 07:52:28;;;;;;;12.23;8.85;;;;;;;19.50;60.38;99700.91;1701006;83;21506;-57
2021/09/14 07:54:55;;;;;;;12.10;7.87;;;;;;;19.55;60.13;99698.25;1740188;80;21690;-57
2021/09/14 07:57:22;;;;;;;12.25;6.22;;;;;;;19.63;59.89;99697.14;1736531;82;21531;-57
2021/09/14 07:59:49;;;;;;;12.53;6.20;;;;;;;19.69;59.19;99692.30;1732313;81;21073;-57
2021/09/14 08:02:16;;;;;;;7.90;6.30;;;;;;;19.74;59.40;99696.78;1733342;82;21546;-57
2021/09/14 08:04:43;;;;;;;9.53;6.17;;;;;;;19.82;58.89;99693.88;1733455;82;20987;-56
2021/09/14 08:07:10;;;;;;;7.87;5.12;;;;;;;19.90;58.54;99687.08;1734036;82;22082;-56
2021/09/14 08:09:36;;;;;;;10.60;6.72;;;;;;;20.01;57.88;99695.06;1732538;82;21508;-57
2021/09/14 08:12:04;;;;;;;8.40;6.30;;;;;;;20.03;56.45;99689.11;1732738;81;21587;-57
2021/09/14 08:14:31;;;;;;;10.63;6.58;;;;;;;20.10;56.58;99688.11;1704680;82;21475;-57
2021/09/14 08:16:59;;;;;;;8.85;6.60;;;;;;;20.12;57.17;99692.36;1704678;82;26957;-56
2021/09/14 08:19:25;;;;;;;12.28;7.55;;;;;;;20.25;56.66;99684.66;1704666;82;21591;-57
2021/09/14 08:21:53;;;;;;;10.45;6.87;;;;;;;20.23;56.59;99685.66;1706323;82;21137;-57
2021/09/14 08:24:21;;;;;;;5.92;4.50;;;;;;;20.28;56.84;99685.76;1728298;82;25754;-57
2021/09/14 08:26:47;;;;;;;8.50;4.65;;;;;;;20.35;56.54;99682.45;1728071;82;21483;-56
2021/09/14 08:29:15;;;;;;;6.80;4.97;;;;;;;20.43;56.60;99677.80;1731958;82;20992;-57
2021/09/14 08:31:42;;;;;;;7.58;5.58;;;;;;;20.52;57.18;99679.70;1714191;82;21828;-57
2021/09/14 08:34:09;;;;;;;12.50;7.90;;;;;;;20.68;56.66;99687.33;1717348;82;21405;-57
2021/09/14 08:36:36;;;;;;;7.75;6.00;;;;;;;20.77;56.29;99689.70;1734200;82;21569;-57
2021/09/14 08:39:03;;;;;;;9.25;6.50;;;;;;;20.83;55.99;99686.49;1734236;81;21388;-57
2021/09/14 08:41:30;;;;;;;7.13;6.23;;;;;;;20.89;55.72;99695.34;1712295;82;20946;-56
2021/09/14 08:43:57;;;;;;;7.22;5.72;;;;;;;20.97;54.98;99685.34;1708117;82;22018;-56
2021/09/14 08:46:24;;;;;;;6.35;5.60;;;;;;;20.97;54.98;99685.34;1732075;81;21681;-56
2021/09/14 08:48:51;;;;;;;6.53;5.55;;;;;;;20.99;54.76;99685.55;1732284;82;21425;-56
2021/09/14 08:51:18;;;;;;;6.25;4.62;;;;;;;21.02;55.45;99681.79;1732468;81;21409;-57
2021/09/14 08:53:44;;;;;;;8.10;4.80;;;;;;;21.17;54.88;99680.46;1732686;81;20979;-56
2021/09/14 08:56:12;;;;;;;6.45;5.03;;;;;;;21.24;54.67;99681.26;1728359;82;22085;-56
2021/09/14 08:58:38;;;;;;;6.97;5.10;;;;;;;21.33;53.87;99675.95;1744700;80;21600;-57
2021/09/14 09:01:14;;;;;;;8.28;6.50;;;;;;;21.34;53.63;99676.32;1725051;81;21099;-58
2021/09/14 09:03:42;;;;;;;9.73;5.45;;;;;;;21.47;53.61;99676.10;1718214;81;21420;-58
2021/09/14 09:06:12;;;;;;;4.92;4.12;;;;;;;21.58;52.27;99678.67;1747194;80;20990;-57
2021/09/14 09:08:38;;;;;;;8.23;3.60;;;;;;;21.65;52.43;99676.82;1747124;81;21432;-57
2021/09/14 09:11:08;;;;;;;7.28;3.55;;;;;;;21.66;51.07;99679.83;1747409;81;21423;-57
2021/09/14 09:13:47;;;;;;;3.47;3.00;;;;;;;21.66;51.07;99679.83;1747154;81;21408;-56
2021/09/14 09:16:21;;;;;;;5.90;3.15;;;;;;;21.66;50.35;99667.80;1746660;81;21534;-57
2021/09/14 09:18:52;;;;;;;6.62;2.80;;;;;;;21.70;50.67;99670.08;1745445;81;21542;-57
2021/09/14 09:21:19;;;;;;;3.42;2.47;;;;;;;21.71;50.28;99678.44;1747234;81;22161;-57
2021/09/14 09:23:57;;;;;;;3.70;2.67;;;;;;;21.75;50.44;99684.38;1721917;81;21442;-57
2021/09/14 09:26:37;;;;;;;6.17;2.90;;;;;;;21.90;49.02;99677.64;1738626;80;21958;-57
2021/09/14 09:29:06;;;;;;;4.25;2.62;;;;;;;21.94;48.66;99674.20;1730364;81;21454;-58
2021/09/14 09:31:37;;;;;;;6.47;2.92;;;;;;;22.04;48.58;99673.75;1721886;82;21632;-58
2021/09/14 09:34:08;;;;;;;4.37;2.98;;;;;;;22.12;48.36;99669.03;1734021;82;21817;-57
2021/09/14 09:36:39;;;;;;;5.42;2.87;;;;;;;22.15;47.90;99666.92;1725792;82;21490;-57
2021/09/14 09:39:13;;;;;;;4.20;2.60;;;;;;;22.28;47.77;99654.64;1717675;82;21474;-58
2021/09/14 09:41:53;;;;;;;5.05;2.47;;;;;;;22.28;47.77;99654.64;1675163;83;21420;-58
2021/09/14 09:44:20;;;;;;;2.55;2.35;;;;;;;22.34;47.99;99655.91;1665421;85;21491;-57
2021/09/14 09:46:57;;;;;;;3.52;2.62;;;;;;;22.44;47.93;99647.36;1673028;84;21687;-57
2021/09/14 09:49:24;;;;;;;5.20;2.43;;;;;;;22.54;48.14;99647.35;1676946;83;21570;-57
2021/09/14 09:51:52;;;;;;;4.47;2.85;;;;;;;22.61;47.38;99648.98;1728507;82;21458;-57
2021/09/14 09:54:20;;;;;;;3.70;2.52;;;;;;;22.65;47.32;99644.52;1710427;82;21485;-57
2021/09/14 09:56:49;;;;;;;5.78;2.50;;;;;;;22.64;47.24;99649.55;1725396;80;21522;-58
2021/09/14 09:59:17;;;;;;;4.40;2.60;;;;;;;22.63;47.67;99648.34;1685475;83;21874;-57
2021/09/14 10:02:01;;;;;;;3.00;2.70;;;;;;;22.70;47.84;99638.24;1706556;82;28542;-56
2021/09/14 10:04:28;;;;;;;3.20;2.50;;;;;;;22.85;48.15;99643.13;1682094;83;21577;-57
2021/09/14 10:06:56;;;;;;;4.87;2.80;;;;;;;23.09;47.25;99637.31;1694416;83;21554;-57
2021/09/14 10:09:30;;;;;;;6.53;3.50;;;;;;;23.18;46.58;99643.65;1712144;83;21633;-57
2021/09/14 10:11:58;;;;;;;4.60;2.60;;;;;;;23.26;46.35;99653.14;1691657;82;21752;-57
2021/09/14 10:14:25;;;;;;;2.83;2.50;;;;;;;23.33;45.25;99650.22;1686914;84;21476;-56
2021/09/14 10:16:51;;;;;;;5.62;3.00;;;;;;;23.33;45.17;99656.92;1711314;82;21455;-56
2021/09/14 10:19:27;;;;;;;3.55;3.05;;;;;;;23.44;44.48;99661.27;1688611;84;21449;-57
2021/09/14 10:22:08;;;;;;;5.75;3.25;;;;;;;23.46;45.13;99647.20;1711739;83;21514;-56
2021/09/14 10:24:35;;;;;;;3.17;2.75;;;;;;;23.51;45.00;99666.39;1711269;82;21884;-56
2021/09/14 10:27:12;;;;;;;8.30;3.45;;;;;;;23.46;44.49;99653.91;1708692;82;21616;-56
2021/09/14 10:29:41;;;;;;;3.30;3.00;;;;;;;23.29;44.64;99655.03;1711350;82;21482;-56
2021/09/14 10:32:10;;;;;;;5.05;2.72;;;;;;;23.27;44.79;99656.18;1711386;82;21450;-56
2021/09/14 10:34:43;;;;;;;4.65;2.67;;;;;;;23.31;45.11;99651.70;1711764;82;21601;-56
2021/09/14 10:37:11;;;;;;;4.65;2.98;;;;;;;23.32;44.98;99657.43;1704565;83;21444;-56
2021/09/14 10:39:41;;;;;;;5.70;2.67;;;;;;;23.31;45.18;99657.06;1680231;83;21595;-55
2021/09/14 10:42:21;;;;;;;4.67;2.60;;;;;;;23.26;44.91;99658.03;1722780;80;20949;-57
2021/09/14 10:44:51;;;;;;;6.80;3.10;;;;;;;23.19;44.68;99659.59;1683822;83;21495;-55
2021/09/14 10:47:21;;;;;;;4.97;2.83;;;;;;;23.13;45.14;99658.34;1693507;84;21436;-54
2021/09/14 10:49:58;;;;;;;3.95;3.30;;;;;;;23.22;45.47;99654.42;1685388;83;21798;-55
2021/09/14 10:52:34;;;;;;;;;;;;;;;23.32;45.32;99651.23;1689188;84;21461;-54
2021/09/14 10:55:14;;;;;;;3.75;3.25;;;;;;;23.37;44.49;99648.09;1705717;83;20458;-55
2021/09/14 10:57:46;;;;;;;4.83;3.12;;;;;;;23.31;44.94;99653.05;1691403;83;21614;-54
2021/09/14 11:00:19;;;;;;;3.25;2.65;;;;;;;23.26;45.47;99646.43;1693864;82;21156;-55
2021/09/14 11:02:56;;;;;;;3.62;2.62;;;;;;;23.38;45.74;99643.09;1698258;83;22085;-56
2021/09/14 11:05:28;;;;;;;;;;;;;;;23.59;45.83;99643.67;1700468;82;21519;-55
2021/09/14 11:08:06;;;;;;;2.55;2.35;;;;;;;23.72;45.05;99650.03;1690370;83;20508;-55
2021/09/14 11:10:39;;;;;;;5.85;3.00;;;;;;;23.72;44.24;99641.98;1693206;82;21522;-56
2021/09/14 11:13:08;;;;;;;10.28;2.98;;;;;;;23.68;44.50;99650.00;1734778;81;21577;-56
2021/09/14 11:15:37;;;;;;;5.05;3.15;;;;;;;23.76;44.78;99635.82;1729755;82;21625;-55
2021/09/14 11:18:04;;;;;;;3.58;3.10;;;;;;;23.78;45.15;99641.88;1728955;80;21561;-56
2021/09/14 11:20:30;;;;;;;5.95;2.98;;;;;;;23.80;45.46;99647.97;1724128;81;21479;-54
2021/09/14 11:23:00;;;;;;;3.35;3.05;;;;;;;23.78;44.11;99642.72;1713830;81;21530;-56
2021/09/14 11:25:28;;;;;;;3.47;2.95;;;;;;;23.66;43.92;99649.30;1704961;81;21006;-55
2021/09/14 11:28:01;;;;;;;3.65;2.98;;;;;;;23.63;43.99;99642.37;1717671;82;22005;-54
2021/09/14 11:30:30;;;;;;;3.60;3.05;;;;;;;23.65;44.22;99645.75;1701668;82;21431;-54
2021/09/14 11:32:58;;;;;;;7.37;5.03;;;;;;;23.66;44.12;99640.75;1734569;80;21490;-55
2021/09/14 11:35:26;;;;;;;;;;;;;;;23.64;44.64;99640.53;1684139;82;21539;-54
2021/09/14 11:38:07;;;;;;;10.15;4.30;;;;;;;23.59;45.08;99645.02;1712845;82;20176;-54
2021/09/14 11:40:44;;;;;;;4.17;3.77;;;;;;;23.46;44.49;99652.06;1675817;83;21791;-54
2021/09/14 11:43:16;;;;;;;4.87;3.50;;;;;;;23.31;45.23;99642.82;1701283;83;21509;-55
2021/09/14 11:45:42;;;;;;;7.40;3.47;;;;;;;23.25;45.45;99648.78;1713337;81;21543;-55
2021/09/14 11:48:23;;;;;;;6.45;3.40;;;;;;;23.17;45.84;99650.86;1730039;82;21038;-55
2021/09/14 11:51:12;;;;;;;8.05;3.52;;;;;;;23.11;45.52;99643.37;1739439;82;21451;-55
2021/09/14 11:53:42;;;;;;;4.78;3.37;;;;;;;23.08;45.48;99641.84;1738687;80;22292;-55
2021/09/14 11:56:15;;;;;;;4.25;3.02;;;;;;;23.16;45.49;99641.11;1699833;82;21435;-55
2021/09/14 11:58:48;;;;;;;3.83;3.40;;;;;;;23.22;45.92;99637.83;1733565;80;21578;-55
2021/09/14 12:01:19;;;;;;;3.77;3.00;;;;;;;23.30;45.13;99640.64;1728125;81;21014;-56
2021/09/14 12:03:51;;;;;;;4.30;3.05;;;;;;;23.29;44.53;99639.44;1728230;82;21459;-55
2021/09/14 12:06:31;;;;;;;5.70;2.60;;;;;;;23.31;44.28;99629.41;1727934;81;21841;-55
2021/09/14 12:09:07;;;;;;;3.85;2.83;;;;;;;23.46;44.83;99629.77;1724946;82;21427;-55
2021/09/14 12:11:32;;;;;;;5.40;3.17;;;;;;;23.64;43.75;99625.30;1731600;81;21436;-54
2021/09/14 12:14:05;;;;;;;3.33;3.02;;;;;;;23.79;43.69;99624.31;1732021;81;21457;-54
2021/09/14 12:16:42;;;;;;;7.20;2.98;;;;;;;23.99;43.66;99621.48;1733172;82;21463;-54
2021/09/14 12:19:08;;;;;;;3.77;2.72;;;;;;;24.15;42.54;99618.10;1728287;81;21733;-54
2021/09/14 12:21:35;;;;;;;3.90;2.83;;;;;;;24.27;42.52;99619.06;1699426;82;21560;-54
2021/09/14 12:24:04;;;;;;;4.92;2.83;;;;;;;24.31;42.33;99618.26;1718557;82;21042;-54
2021/09/14 12:26:38;;;;;;;4.37;2.70;;;;;;;24.29;42.64;99621.09;1743420;81;21455;-54
2021/09/14 12:29:01;;;;;;;5.95;2.72;;;;;;;24.23;42.69;99604.77;1758273;79;21007;-54
2021/09/14 12:31:30;;;;;;;4.53;2.22;;;;;;;24.23;42.62;99615.00;1730254;80;21422;-55
2021/09/14 12:33:56;;;;;;;3.73;2.10;;;;;;;24.23;42.28;99611.48;1733403;82;21416;-54
2021/09/14 12:36:23;;;;;;;2.10;2.00;;;;;;;23.98;40.99;99622.00;1730440;81;21698;-55